createdAt,value
2019-01-02T00:00:40.103Z,1022.84
2019-01-02T00:01:40.073Z,1022.71
2019-01-02T00:02:40.047Z,1022.81
2019-01-02T00:03:40.022Z,1022.72
2019-01-02T00:04:39.998Z,1022.76
2019-01-02T00:05:39.973Z,1022.73
2019-01-02T00:06:39.948Z,1022.83
2019-01-02T00:07:39.921Z,1022.84
2019-01-02T00:08:39.901Z,1022.84
2019-01-02T00:09:39.877Z,1022.90
2019-01-02T00:10:39.856Z,1022.79
2019-01-02T00:11:39.825Z,1022.79
2019-01-02T00:12:39.797Z,1022.82
2019-01-02T00:13:39.774Z,1022.82
2019-01-02T00:14:39.750Z,1022.86
2019-01-02T00:15:39.725Z,1022.80
2019-01-02T00:16:39.704Z,1022.88
2019-01-02T00:17:39.678Z,1022.90
2019-01-02T00:18:39.652Z,1022.92
2019-01-02T00:19:39.631Z,1022.99
2019-01-02T00:20:39.600Z,1022.97
2019-01-02T00:21:39.573Z,1022.92
2019-01-02T00:22:39.554Z,1022.81
2019-01-02T00:23:39.527Z,1022.96
2019-01-02T00:24:39.499Z,1022.93
2019-01-02T00:25:39.480Z,1022.92
2019-01-02T00:26:39.453Z,1022.94
2019-01-02T00:27:39.446Z,1022.94
2019-01-02T00:28:39.401Z,1022.98
2019-01-02T00:29:39.373Z,1022.98
2019-01-02T00:30:39.350Z,1022.97
2019-01-02T00:31:39.324Z,1023.03
2019-01-02T00:32:39.309Z,1023.05
2019-01-02T00:33:39.276Z,1022.99
2019-01-02T00:34:39.250Z,1023.00
2019-01-02T00:35:39.226Z,1022.96
2019-01-02T00:36:39.203Z,1023.04
2019-01-02T00:37:39.168Z,1023.06
2019-01-02T00:38:39.146Z,1023.12
2019-01-02T00:39:39.120Z,1023.12
2019-01-02T00:40:39.095Z,1023.05
2019-01-02T00:41:39.089Z,1023.03
2019-01-02T00:42:39.053Z,1022.98
2019-01-02T00:43:39.022Z,1023.04
2019-01-02T00:44:38.996Z,1023.06
2019-01-02T00:45:38.981Z,1023.01
2019-01-02T00:46:38.950Z,1022.98
2019-01-02T00:47:38.922Z,1023.00
2019-01-02T00:48:38.895Z,1023.00
2019-01-02T00:49:38.873Z,1022.97
2019-01-02T00:50:38.847Z,1023.05
2019-01-02T00:51:38.820Z,1023.04
2019-01-02T00:52:38.800Z,1023.03
2019-01-02T00:53:38.772Z,1022.99
2019-01-02T00:54:38.750Z,1022.89
2019-01-02T00:55:38.721Z,1022.94
2019-01-02T00:56:38.696Z,1022.97
2019-01-02T00:57:38.670Z,1022.99
2019-01-02T00:58:38.645Z,1022.94
2019-01-02T00:59:38.619Z,1022.97
2019-01-02T01:00:38.595Z,1022.95
2019-01-02T01:01:38.568Z,1022.93
2019-01-02T01:02:38.545Z,1023.00
2019-01-02T01:03:38.534Z,1023.00
2019-01-02T01:04:38.492Z,1023.05
2019-01-02T01:05:38.471Z,1023.07
2019-01-02T01:06:38.444Z,1023.00
2019-01-02T01:07:38.425Z,1023.04
2019-01-02T01:08:38.395Z,1023.20
2019-01-02T01:09:38.368Z,1023.16
2019-01-02T01:10:38.345Z,1023.16
2019-01-02T01:11:38.317Z,1023.07
2019-01-02T01:12:38.295Z,1023.17
2019-01-02T01:13:38.273Z,1023.13
2019-01-02T01:14:38.244Z,1022.98
2019-01-02T01:15:38.218Z,1023.05
2019-01-02T01:16:38.198Z,1023.03
2019-01-02T01:17:38.168Z,1023.09
2019-01-02T01:18:38.144Z,1023.09
2019-01-02T01:19:38.118Z,1023.07
2019-01-02T01:20:38.102Z,1023.18
2019-01-02T01:21:38.068Z,1023.20
2019-01-02T01:22:38.046Z,1023.31
2019-01-02T01:23:38.018Z,1023.21
2019-01-02T01:24:37.997Z,1023.28
2019-01-02T01:25:37.966Z,1023.32
2019-01-02T01:26:37.951Z,1023.31
2019-01-02T01:27:37.916Z,1023.31
2019-01-02T01:28:37.894Z,1023.32
2019-01-02T01:29:37.877Z,1023.35
2019-01-02T01:30:37.842Z,1023.38
2019-01-02T01:31:37.820Z,1023.37
2019-01-02T01:32:37.800Z,1023.39
2019-01-02T01:33:37.767Z,1023.46
2019-01-02T01:34:37.747Z,1023.50
2019-01-02T01:35:37.718Z,1023.44
2019-01-02T01:36:37.692Z,1023.49
2019-01-02T01:37:37.667Z,1023.44
2019-01-02T01:38:37.645Z,1023.46
2019-01-02T01:39:37.626Z,1023.48
2019-01-02T01:40:37.593Z,1023.43
2019-01-02T01:41:37.571Z,1023.40
2019-01-02T01:42:37.562Z,1023.41
2019-01-02T01:43:37.518Z,1023.46
2019-01-02T01:44:37.492Z,1023.47
2019-01-02T01:45:37.466Z,1023.55
2019-01-02T01:46:37.440Z,1023.52
2019-01-02T01:47:37.424Z,1023.55
2019-01-02T01:48:37.391Z,1023.55
2019-01-02T01:49:37.368Z,1023.59
2019-01-02T01:50:37.351Z,1023.53
2019-01-02T01:51:37.317Z,1023.63
2019-01-02T01:52:37.292Z,1023.63
2019-01-02T01:53:37.275Z,1023.63
2019-01-02T01:54:37.240Z,1023.65
2019-01-02T01:55:37.218Z,1023.72
2019-01-02T01:56:37.193Z,1023.78
2019-01-02T01:57:37.178Z,1023.70
2019-01-02T01:58:37.146Z,1023.82
2019-01-02T01:59:37.125Z,1023.84
2019-01-02T02:00:37.094Z,1023.88
2019-01-02T02:01:37.069Z,1023.82
2019-01-02T02:02:37.048Z,1023.78
2019-01-02T02:03:37.023Z,1023.77
2019-01-02T02:04:36.992Z,1023.74
2019-01-02T02:05:36.967Z,1023.66
2019-01-02T02:06:36.946Z,1023.70
2019-01-02T02:07:36.922Z,1023.64
2019-01-02T02:08:36.893Z,1023.72
2019-01-02T02:09:36.868Z,1023.59
2019-01-02T02:10:36.844Z,1023.62
2019-01-02T02:11:36.816Z,1023.56
2019-01-02T02:12:36.791Z,1023.57
2019-01-02T02:13:36.767Z,1023.66
2019-01-02T02:14:36.742Z,1023.58
2019-01-02T02:15:36.714Z,1023.58
2019-01-02T02:16:36.691Z,1023.57
2019-01-02T02:17:36.667Z,1023.63
2019-01-02T02:18:36.641Z,1023.62
2019-01-02T02:19:36.615Z,1023.60
2019-01-02T02:20:36.593Z,1023.63
2019-01-02T02:21:36.568Z,1023.60
2019-01-02T02:22:36.540Z,1023.68
2019-01-02T02:23:36.515Z,1023.66
2019-01-02T02:24:36.490Z,1023.70
2019-01-02T02:25:36.467Z,1023.75
2019-01-02T02:26:36.438Z,1023.82
2019-01-02T02:27:36.416Z,1023.74
2019-01-02T02:28:36.393Z,1023.71
2019-01-02T02:29:36.362Z,1023.83
2019-01-02T02:30:36.336Z,1023.79
2019-01-02T02:31:36.315Z,1023.80
2019-01-02T02:32:36.285Z,1023.86
2019-01-02T02:33:36.261Z,1023.76
2019-01-02T02:34:36.241Z,1023.77
2019-01-02T02:35:36.209Z,1023.80
2019-01-02T02:36:36.194Z,1023.81
2019-01-02T02:37:36.160Z,1023.88
2019-01-02T02:38:36.136Z,1023.88
2019-01-02T02:39:36.110Z,1023.99
2019-01-02T02:40:36.083Z,1023.96
2019-01-02T02:41:36.059Z,1023.98
2019-01-02T02:42:36.039Z,1023.94
2019-01-02T02:43:36.011Z,1023.94
2019-01-02T02:44:35.982Z,1023.94
2019-01-02T02:45:35.967Z,1023.88
2019-01-02T02:46:35.933Z,1023.86
2019-01-02T02:47:35.950Z,1023.89
2019-01-02T02:48:35.896Z,1023.86
2019-01-02T02:49:35.858Z,1023.88
2019-01-02T02:50:35.832Z,1023.90
2019-01-02T02:51:35.809Z,1023.90
2019-01-02T02:52:35.783Z,1023.92
2019-01-02T02:53:35.757Z,1023.93
2019-01-02T02:54:35.730Z,1023.94
2019-01-02T02:55:35.710Z,1023.96
2019-01-02T02:56:35.680Z,1023.95
2019-01-02T02:57:35.662Z,1023.88
2019-01-02T02:58:35.630Z,1023.98
2019-01-02T02:59:35.607Z,1023.91
2019-01-02T03:00:35.581Z,1023.83
2019-01-02T03:01:35.556Z,1023.85
2019-01-02T03:02:35.530Z,1023.84
2019-01-02T03:03:35.505Z,1023.92
2019-01-02T03:04:35.479Z,1023.90
2019-01-02T03:05:35.462Z,1023.88
2019-01-02T03:06:35.439Z,1023.93
2019-01-02T03:07:35.411Z,1023.91
2019-01-02T03:08:35.381Z,1023.96
2019-01-02T03:09:35.360Z,1023.89
2019-01-02T03:10:35.329Z,1023.89
2019-01-02T03:11:35.309Z,1023.95
2019-01-02T03:12:35.280Z,1023.87
2019-01-02T03:13:35.265Z,1023.91
2019-01-02T03:14:35.235Z,1023.98
2019-01-02T03:15:35.204Z,1023.99
2019-01-02T03:16:35.176Z,1024.02
2019-01-02T03:17:35.152Z,1023.99
2019-01-02T03:18:35.132Z,1024.06
2019-01-02T03:19:35.102Z,1024.03
2019-01-02T03:20:35.083Z,1024.04
2019-01-02T03:21:35.060Z,1024.06
2019-01-02T03:22:35.026Z,1024.01
2019-01-02T03:23:35.000Z,1024.00
2019-01-02T03:24:34.978Z,1024.08
2019-01-02T03:25:34.951Z,1024.03
2019-01-02T03:26:34.925Z,1024.09
2019-01-02T03:27:34.899Z,1024.10
2019-01-02T03:28:34.885Z,1024.10
2019-01-02T03:29:34.849Z,1024.12
2019-01-02T03:30:34.827Z,1024.13
2019-01-02T03:31:34.811Z,1024.20
2019-01-02T03:32:34.775Z,1024.15
2019-01-02T03:33:34.761Z,1024.23
2019-01-02T03:34:34.728Z,1024.18
2019-01-02T03:35:34.698Z,1024.21
2019-01-02T03:36:34.676Z,1024.17
2019-01-02T03:37:34.655Z,1024.19
2019-01-02T03:38:34.624Z,1024.24
2019-01-02T03:39:34.599Z,1024.23
2019-01-02T03:40:34.576Z,1024.24
2019-01-02T03:41:34.564Z,1024.32
2019-01-02T03:42:34.529Z,1024.28
2019-01-02T03:43:34.502Z,1024.30
2019-01-02T03:44:34.476Z,1024.32
2019-01-02T03:45:34.450Z,1024.25
2019-01-02T03:46:34.423Z,1024.18
2019-01-02T03:47:34.398Z,1024.18
2019-01-02T03:48:34.373Z,1024.14
2019-01-02T03:49:34.346Z,1024.18
2019-01-02T03:50:34.324Z,1024.14
2019-01-02T03:51:34.297Z,1024.23
2019-01-02T03:52:34.278Z,1024.17
2019-01-02T03:53:34.247Z,1024.14
2019-01-02T03:54:34.228Z,1024.24
2019-01-02T03:55:34.224Z,1024.30
2019-01-02T03:56:34.174Z,1024.30
2019-01-02T03:57:34.154Z,1024.33
2019-01-02T03:58:34.131Z,1024.32
2019-01-02T03:59:34.099Z,1024.31
2019-01-02T04:00:34.074Z,1024.28
2019-01-02T04:01:34.048Z,1024.28
2019-01-02T04:02:34.042Z,1024.34
2019-01-02T04:03:33.998Z,1024.35
2019-01-02T04:04:33.973Z,1024.38
2019-01-02T04:05:33.947Z,1024.37
2019-01-02T04:06:33.923Z,1024.30
2019-01-02T04:07:33.896Z,1024.42
2019-01-02T04:08:33.875Z,1024.42
2019-01-02T04:09:33.845Z,1024.37
2019-01-02T04:10:33.834Z,1024.31
2019-01-02T04:11:33.796Z,1024.34
2019-01-02T04:12:33.784Z,1024.36
2019-01-02T04:13:33.752Z,1024.34
2019-01-02T04:14:33.727Z,1024.36
2019-01-02T04:15:33.697Z,1024.28
2019-01-02T04:16:33.678Z,1024.35
2019-01-02T04:17:33.647Z,1024.32
2019-01-02T04:18:33.628Z,1024.38
2019-01-02T04:19:33.598Z,1024.31
2019-01-02T04:20:33.588Z,1024.37
2019-01-02T04:21:33.553Z,1024.29
2019-01-02T04:22:33.524Z,1024.31
2019-01-02T04:23:33.496Z,1024.24
2019-01-02T04:24:33.472Z,1024.31
2019-01-02T04:25:33.448Z,1024.32
2019-01-02T04:26:33.423Z,1024.30
2019-01-02T04:27:33.400Z,1024.30
2019-01-02T04:28:33.372Z,1024.37
2019-01-02T04:29:33.348Z,1024.37
2019-01-02T04:30:33.318Z,1024.36
2019-01-02T04:31:33.295Z,1024.43
2019-01-02T04:32:33.271Z,1024.37
2019-01-02T04:33:33.248Z,1024.35
2019-01-02T04:34:33.224Z,1024.34
2019-01-02T04:35:33.198Z,1024.38
2019-01-02T04:36:33.174Z,1024.36
2019-01-02T04:37:33.148Z,1024.39
2019-01-02T04:38:33.123Z,1024.44
2019-01-02T04:39:33.099Z,1024.42
2019-01-02T04:40:33.074Z,1024.42
2019-01-02T04:41:33.054Z,1024.42
2019-01-02T04:42:33.023Z,1024.40
2019-01-02T04:43:32.998Z,1024.41
2019-01-02T04:44:32.976Z,1024.42
2019-01-02T04:45:32.953Z,1024.40
2019-01-02T04:46:32.924Z,1024.32
2019-01-02T04:47:32.900Z,1024.35
2019-01-02T04:48:32.877Z,1024.36
2019-01-02T04:49:32.853Z,1024.40
2019-01-02T04:50:32.833Z,1024.33
2019-01-02T04:51:32.803Z,1024.38
2019-01-02T04:52:32.777Z,1024.36
2019-01-02T04:53:32.750Z,1024.46
2019-01-02T04:54:32.725Z,1024.44
2019-01-02T04:55:32.701Z,1024.39
2019-01-02T04:56:32.674Z,1024.41
2019-01-02T04:57:32.652Z,1024.41
2019-01-02T04:58:32.628Z,1024.40
2019-01-02T04:59:32.601Z,1024.39
2019-01-02T05:00:32.580Z,1024.41
2019-01-02T05:01:32.554Z,1024.42
2019-01-02T05:02:32.528Z,1024.49
2019-01-02T05:03:32.504Z,1024.48
2019-01-02T05:04:32.479Z,1024.46
2019-01-02T05:05:32.455Z,1024.53
2019-01-02T05:06:32.432Z,1024.47
2019-01-02T05:07:32.406Z,1024.49
2019-01-02T05:08:32.381Z,1024.47
2019-01-02T05:09:32.948Z,1024.50
2019-01-02T05:10:32.330Z,1024.54
2019-01-02T05:11:32.305Z,1024.53
2019-01-02T05:12:32.280Z,1024.52
2019-01-02T05:13:32.262Z,1024.56
2019-01-02T05:14:32.234Z,1024.63
2019-01-02T05:15:32.208Z,1024.55
2019-01-02T05:16:32.183Z,1024.57
2019-01-02T05:17:32.159Z,1024.64
2019-01-02T05:18:32.131Z,1024.72
2019-01-02T05:19:32.106Z,1024.76
2019-01-02T05:20:32.081Z,1024.71
2019-01-02T05:21:32.056Z,1024.73
2019-01-02T05:22:32.032Z,1024.77
2019-01-02T05:23:32.004Z,1024.77
2019-01-02T05:24:31.981Z,1024.86
2019-01-02T05:25:31.956Z,1024.82
2019-01-02T05:26:31.935Z,1024.87
2019-01-02T05:27:31.906Z,1024.85
2019-01-02T05:28:31.881Z,1024.90
2019-01-02T05:29:31.859Z,1024.87
2019-01-02T05:30:31.942Z,1024.87
2019-01-02T05:31:31.810Z,1024.84
2019-01-02T05:32:31.786Z,1024.93
2019-01-02T05:33:31.764Z,1024.86
2019-01-02T05:34:31.735Z,1024.87
2019-01-02T05:35:31.709Z,1024.86
2019-01-02T05:36:31.685Z,1024.92
2019-01-02T05:37:31.659Z,1024.89
2019-01-02T05:38:31.635Z,1024.94
2019-01-02T05:39:31.608Z,1024.93
2019-01-02T05:40:31.583Z,1025.01
2019-01-02T05:41:31.560Z,1024.96
2019-01-02T05:42:31.534Z,1025.02
2019-01-02T05:43:31.508Z,1025.03
2019-01-02T05:44:31.484Z,1024.97
2019-01-02T05:45:31.462Z,1024.95
2019-01-02T05:46:31.435Z,1025.00
2019-01-02T05:47:31.409Z,1025.05
2019-01-02T05:48:31.388Z,1025.06
2019-01-02T05:49:31.374Z,1025.06
2019-01-02T05:50:31.336Z,1025.04
2019-01-02T05:51:31.311Z,1025.04
2019-01-02T05:52:31.290Z,1025.08
2019-01-02T05:53:31.271Z,1025.02
2019-01-02T05:54:31.237Z,1025.05
2019-01-02T05:55:31.209Z,1025.04
2019-01-02T05:56:31.193Z,1025.09
2019-01-02T05:57:31.161Z,1025.12
2019-01-02T05:58:31.137Z,1025.12
2019-01-02T05:59:31.110Z,1025.11
2019-01-02T06:00:31.089Z,1025.13
2019-01-02T06:01:31.066Z,1025.19
2019-01-02T06:02:31.038Z,1025.14
2019-01-02T06:03:31.014Z,1025.15
2019-01-02T06:04:30.989Z,1025.18
2019-01-02T06:05:30.964Z,1025.16
2019-01-02T06:06:30.939Z,1025.21
2019-01-02T06:07:30.912Z,1025.18
2019-01-02T06:08:30.888Z,1025.17
2019-01-02T06:09:30.863Z,1025.20
2019-01-02T06:10:30.839Z,1025.18
2019-01-02T06:11:30.813Z,1025.20
2019-01-02T06:12:30.787Z,1025.25
2019-01-02T06:13:30.761Z,1025.27
2019-01-02T06:14:30.739Z,1025.18
2019-01-02T06:15:30.722Z,1025.25
2019-01-02T06:16:30.688Z,1025.26
2019-01-02T06:17:30.664Z,1025.26
2019-01-02T06:18:30.638Z,1025.31
2019-01-02T06:19:30.614Z,1025.34
2019-01-02T06:20:30.592Z,1025.31
2019-01-02T06:21:30.566Z,1025.35
2019-01-02T06:22:30.553Z,1025.40
2019-01-02T06:23:30.514Z,1025.34
2019-01-02T06:24:30.488Z,1025.34
2019-01-02T06:25:30.466Z,1025.35
2019-01-02T06:26:30.452Z,1025.29
2019-01-02T06:27:30.414Z,1025.34
2019-01-02T06:28:30.391Z,1025.35
2019-01-02T06:29:30.365Z,1025.42
2019-01-02T06:30:30.344Z,1025.36
2019-01-02T06:31:30.353Z,1025.38
2019-01-02T06:32:30.291Z,1025.46
2019-01-02T06:33:30.266Z,1025.40
2019-01-02T06:34:30.241Z,1025.46
2019-01-02T06:35:30.224Z,1025.47
2019-01-02T06:36:30.191Z,1025.44
2019-01-02T06:37:30.166Z,1025.48
2019-01-02T06:38:30.140Z,1025.49
2019-01-02T06:39:30.115Z,1025.50
2019-01-02T06:40:30.091Z,1025.47
2019-01-02T06:41:30.065Z,1025.50
2019-01-02T06:42:30.041Z,1025.48
2019-01-02T06:43:30.018Z,1025.50
2019-01-02T06:44:29.992Z,1025.51
2019-01-02T06:45:29.970Z,1025.52
2019-01-02T06:46:29.942Z,1025.53
2019-01-02T06:47:29.919Z,1025.51
2019-01-02T06:48:29.892Z,1025.56
2019-01-02T06:49:29.868Z,1025.48
2019-01-02T06:50:29.845Z,1025.44
2019-01-02T06:51:29.818Z,1025.42
2019-01-02T06:52:29.792Z,1025.51
2019-01-02T06:53:29.781Z,1025.48
2019-01-02T06:54:29.745Z,1025.45
2019-01-02T06:55:29.718Z,1025.47
2019-01-02T06:56:29.694Z,1025.53
2019-01-02T06:57:29.670Z,1025.58
2019-01-02T06:58:29.642Z,1025.59
2019-01-02T06:59:29.626Z,1025.63
2019-01-02T07:00:29.592Z,1025.61
2019-01-02T07:01:29.566Z,1025.67
2019-01-02T07:02:29.545Z,1025.68
2019-01-02T07:03:29.525Z,1025.74
2019-01-02T07:04:29.491Z,1025.72
2019-01-02T07:05:29.466Z,1025.71
2019-01-02T07:06:29.448Z,1025.72
2019-01-02T07:07:31.304Z,1025.78
2019-01-02T07:08:29.393Z,1025.77
2019-01-02T07:09:29.368Z,1025.83
2019-01-02T07:10:29.343Z,1025.85
2019-01-02T07:11:29.318Z,1025.88
2019-01-02T07:12:29.293Z,1025.84
2019-01-02T07:13:29.269Z,1025.81
2019-01-02T07:14:29.248Z,1025.83
2019-01-02T07:15:29.221Z,1025.88
2019-01-02T07:16:29.199Z,1025.87
2019-01-02T07:17:29.167Z,1025.82
2019-01-02T07:18:29.142Z,1025.80
2019-01-02T07:19:29.117Z,1025.75
2019-01-02T07:20:29.092Z,1025.80
2019-01-02T07:21:29.067Z,1025.84
2019-01-02T07:22:29.042Z,1025.86
2019-01-02T07:23:29.018Z,1025.86
2019-01-02T07:24:28.999Z,1025.90
2019-01-02T07:25:28.969Z,1025.90
2019-01-02T07:26:28.945Z,1025.93
2019-01-02T07:27:28.917Z,1025.90
2019-01-02T07:28:28.897Z,1025.90
2019-01-02T07:29:28.869Z,1025.94
2019-01-02T07:30:28.852Z,1025.98
2019-01-02T07:31:28.816Z,1026.03
2019-01-02T07:32:28.796Z,1026.07
2019-01-02T07:33:28.768Z,1026.07
2019-01-02T07:34:28.744Z,1026.11
2019-01-02T07:35:28.721Z,1026.14
2019-01-02T07:36:28.694Z,1026.15
2019-01-02T07:37:28.698Z,1026.21
2019-01-02T07:38:28.643Z,1026.24
2019-01-02T07:39:28.618Z,1026.26
2019-01-02T07:40:28.596Z,1026.30
2019-01-02T07:41:28.577Z,1026.32
2019-01-02T07:42:28.541Z,1026.37
2019-01-02T07:43:28.520Z,1026.38
2019-01-02T07:44:28.490Z,1026.40
2019-01-02T07:45:28.467Z,1026.38
2019-01-02T07:46:28.447Z,1026.46
2019-01-02T07:47:28.417Z,1026.48
2019-01-02T07:48:28.396Z,1026.48
2019-01-02T07:49:28.369Z,1026.49
2019-01-02T07:50:28.344Z,1026.48
2019-01-02T07:51:28.314Z,1026.50
2019-01-02T07:52:28.292Z,1026.47
2019-01-02T07:53:28.267Z,1026.45
2019-01-02T07:54:28.240Z,1026.57
2019-01-02T07:55:28.214Z,1026.55
2019-01-02T07:56:28.191Z,1026.53
2019-01-02T07:57:28.164Z,1026.52
2019-01-02T07:58:28.147Z,1026.56
2019-01-02T07:59:28.112Z,1026.50
2019-01-02T08:00:28.091Z,1026.52
2019-01-02T08:01:28.064Z,1026.55
2019-01-02T08:02:28.041Z,1026.54
2019-01-02T08:03:28.024Z,1026.56
2019-01-02T08:04:27.995Z,1026.56
2019-01-02T08:05:27.968Z,1026.52
2019-01-02T08:06:27.951Z,1026.52
2019-01-02T08:07:27.912Z,1026.59
2019-01-02T08:08:27.887Z,1026.55
2019-01-02T08:09:27.861Z,1026.54
2019-01-02T08:10:27.843Z,1026.58
2019-01-02T08:11:27.813Z,1026.63
2019-01-02T08:12:27.788Z,1026.62
2019-01-02T08:13:27.762Z,1026.64
2019-01-02T08:14:27.741Z,1026.66
2019-01-02T08:15:27.711Z,1026.73
2019-01-02T08:16:29.123Z,1026.77
2019-01-02T08:17:27.660Z,1026.78
2019-01-02T08:18:27.639Z,1026.81
2019-01-02T08:19:27.610Z,1026.81
2019-01-02T08:20:27.586Z,1026.84
2019-01-02T08:21:27.561Z,1026.85
2019-01-02T08:22:27.538Z,1026.85
2019-01-02T08:23:27.512Z,1026.85
2019-01-02T08:24:27.497Z,1026.83
2019-01-02T08:25:27.459Z,1026.87
2019-01-02T08:26:27.440Z,1026.81
2019-01-02T08:27:27.416Z,1026.85
2019-01-02T08:28:27.400Z,1026.94
2019-01-02T08:29:27.365Z,1026.91
2019-01-02T08:30:27.337Z,1026.95
2019-01-02T08:31:27.311Z,1026.94
2019-01-02T08:32:27.284Z,1026.96
2019-01-02T08:33:27.260Z,1027.01
2019-01-02T08:34:27.236Z,1027.02
2019-01-02T08:35:27.223Z,1027.05
2019-01-02T08:36:27.184Z,1027.09
2019-01-02T08:37:27.158Z,1027.15
2019-01-02T08:38:27.136Z,1027.15
2019-01-02T08:39:27.107Z,1027.16
2019-01-02T08:40:27.082Z,1027.18
2019-01-02T08:41:27.058Z,1027.19
2019-01-02T08:42:27.036Z,1027.19
2019-01-02T08:43:27.007Z,1027.21
2019-01-02T08:44:26.988Z,1027.25
2019-01-02T08:45:26.960Z,1027.22
2019-01-02T08:46:26.934Z,1027.28
2019-01-02T08:47:26.910Z,1027.23
2019-01-02T08:48:26.884Z,1027.25
2019-01-02T08:49:26.866Z,1027.26
2019-01-02T08:50:26.836Z,1027.27
2019-01-02T08:51:26.807Z,1027.29
2019-01-02T08:52:26.784Z,1027.29
2019-01-02T08:53:26.758Z,1027.38
2019-01-02T08:54:26.736Z,1027.33
2019-01-02T08:55:26.708Z,1027.38
2019-01-02T08:56:26.681Z,1027.37
2019-01-02T08:57:26.659Z,1027.45
2019-01-02T08:58:26.637Z,1027.47
2019-01-02T08:59:26.612Z,1027.48
2019-01-02T09:00:26.584Z,1027.51
2019-01-02T09:01:26.563Z,1027.51
2019-01-02T09:02:26.536Z,1027.50
2019-01-02T09:03:26.508Z,1027.56
2019-01-02T09:04:26.486Z,1027.55
2019-01-02T09:05:26.461Z,1027.54
2019-01-02T09:06:26.433Z,1027.60
2019-01-02T09:07:26.408Z,1027.57
2019-01-02T09:08:26.386Z,1027.61
2019-01-02T09:09:26.360Z,1027.61
2019-01-02T09:10:26.334Z,1027.60
2019-01-02T09:11:26.309Z,1027.62
2019-01-02T09:12:26.284Z,1027.63
2019-01-02T09:13:26.261Z,1027.66
2019-01-02T09:14:26.234Z,1027.69
2019-01-02T09:15:26.209Z,1027.72
2019-01-02T09:16:26.186Z,1027.76
2019-01-02T09:17:26.162Z,1027.78
2019-01-02T09:18:26.136Z,1027.77
2019-01-02T09:19:26.113Z,1027.81
2019-01-02T09:20:26.088Z,1027.80
2019-01-02T09:21:26.063Z,1027.82
2019-01-02T09:22:26.035Z,1027.79
2019-01-02T09:23:26.009Z,1027.85
2019-01-02T09:24:25.983Z,1027.83
2019-01-02T09:25:25.963Z,1027.87
2019-01-02T09:26:25.938Z,1027.89
2019-01-02T09:27:25.911Z,1027.88
2019-01-02T09:28:25.890Z,1027.89
2019-01-02T09:29:25.861Z,1027.80
2019-01-02T09:30:25.837Z,1027.81
2019-01-02T09:31:25.811Z,1027.83
2019-01-02T09:32:25.785Z,1027.88
2019-01-02T09:33:25.764Z,1027.93
2019-01-02T09:34:25.735Z,1027.87
2019-01-02T09:35:25.709Z,1027.92
2019-01-02T09:36:25.688Z,1027.92
2019-01-02T09:37:25.661Z,1027.96
2019-01-02T09:38:25.641Z,1027.96
2019-01-02T09:39:25.615Z,1027.99
2019-01-02T09:40:25.586Z,1028.00
2019-01-02T09:41:25.571Z,1028.05
2019-01-02T09:42:25.537Z,1028.04
2019-01-02T09:43:25.519Z,1028.10
2019-01-02T09:44:25.486Z,1028.04
2019-01-02T09:45:25.462Z,1028.08
2019-01-02T09:46:25.531Z,1028.09
2019-01-02T09:47:25.461Z,1028.10
2019-01-02T09:48:25.415Z,1028.14
2019-01-02T09:49:25.361Z,1028.10
2019-01-02T09:50:25.352Z,1028.10
2019-01-02T09:51:25.310Z,1028.12
2019-01-02T09:52:25.288Z,1028.15
2019-01-02T09:53:25.261Z,1028.13
2019-01-02T09:54:25.249Z,1028.18
2019-01-02T09:55:25.218Z,1028.16
2019-01-02T09:56:25.197Z,1028.16
2019-01-02T09:57:25.166Z,1028.14
2019-01-02T09:58:25.139Z,1028.18
2019-01-02T09:59:25.117Z,1028.24
2019-01-02T10:00:25.091Z,1028.24
2019-01-02T10:01:25.065Z,1028.24
2019-01-02T10:02:25.043Z,1028.25
2019-01-02T10:03:25.018Z,1028.28
2019-01-02T10:04:24.993Z,1028.22
2019-01-02T10:05:24.967Z,1028.24
2019-01-02T10:06:24.946Z,1028.21
2019-01-02T10:07:24.919Z,1028.27
2019-01-02T10:08:24.899Z,1028.20
2019-01-02T10:09:24.865Z,1028.21
2019-01-02T10:10:24.844Z,1028.25
2019-01-02T10:11:24.820Z,1028.25
2019-01-02T10:12:24.789Z,1028.24
2019-01-02T10:13:24.765Z,1028.24
2019-01-02T10:14:24.739Z,1028.23
2019-01-02T10:15:24.716Z,1028.27
2019-01-02T10:16:24.704Z,1028.27
2019-01-02T10:17:24.667Z,1028.27
2019-01-02T10:18:24.643Z,1028.28
2019-01-02T10:19:24.617Z,1028.25
2019-01-02T10:20:24.594Z,1028.24
2019-01-02T10:21:24.575Z,1028.29
2019-01-02T10:22:24.545Z,1028.27
2019-01-02T10:23:24.532Z,1028.28
2019-01-02T10:24:24.494Z,1028.23
2019-01-02T10:25:24.470Z,1028.25
2019-01-02T10:26:24.453Z,1028.27
2019-01-02T10:27:24.419Z,1028.26
2019-01-02T10:28:24.406Z,1028.30
2019-01-02T10:29:24.370Z,1028.32
2019-01-02T10:30:24.350Z,1028.29
2019-01-02T10:31:24.319Z,1028.28
2019-01-02T10:32:24.311Z,1028.25
2019-01-02T10:33:24.275Z,1028.30
2019-01-02T10:34:24.249Z,1028.27
2019-01-02T10:35:24.228Z,1028.32
2019-01-02T10:36:24.198Z,1028.24
2019-01-02T10:37:24.171Z,1028.24
2019-01-02T10:38:24.147Z,1028.30
2019-01-02T10:39:24.123Z,1028.35
2019-01-02T10:40:24.104Z,1028.36
2019-01-02T10:41:24.090Z,1028.47
2019-01-02T10:42:24.067Z,1028.40
2019-01-02T10:43:24.024Z,1028.49
2019-01-02T10:44:24.000Z,1028.41
2019-01-02T10:45:23.987Z,1028.47
2019-01-02T10:46:23.957Z,1028.45
2019-01-02T10:47:23.928Z,1028.40
2019-01-02T10:48:23.902Z,1028.38
2019-01-02T10:49:23.886Z,1028.44
2019-01-02T10:50:23.858Z,1028.41
2019-01-02T10:51:23.835Z,1028.44
2019-01-02T10:52:23.809Z,1028.49
2019-01-02T10:53:23.781Z,1028.49
2019-01-02T10:54:23.755Z,1028.46
2019-01-02T10:55:23.728Z,1028.46
2019-01-02T10:56:23.719Z,1028.46
2019-01-02T10:57:23.690Z,1028.54
2019-01-02T10:58:23.656Z,1028.47
2019-01-02T10:59:23.630Z,1028.43
2019-01-02T11:00:23.611Z,1028.47
2019-01-02T11:01:23.588Z,1028.48
2019-01-02T11:02:23.558Z,1028.48
2019-01-02T11:03:23.550Z,1028.55
2019-01-02T11:04:23.513Z,1028.50
2019-01-02T11:05:23.480Z,1028.51
2019-01-02T11:06:23.457Z,1028.54
2019-01-02T11:07:23.486Z,1028.41
2019-01-02T11:08:23.407Z,1028.47
2019-01-02T11:09:23.388Z,1028.45
2019-01-02T11:10:23.358Z,1028.45
2019-01-02T11:11:23.334Z,1028.51
2019-01-02T11:12:23.309Z,1028.48
2019-01-02T11:13:23.294Z,1028.46
2019-01-02T11:14:23.264Z,1028.50
2019-01-02T11:15:23.239Z,1028.46
2019-01-02T11:16:23.211Z,1028.52
2019-01-02T11:17:23.198Z,1028.46
2019-01-02T11:18:23.162Z,1028.47
2019-01-02T11:19:23.145Z,1028.47
2019-01-02T11:20:23.118Z,1028.44
2019-01-02T11:21:23.090Z,1028.53
2019-01-02T11:22:23.064Z,1028.52
2019-01-02T11:23:23.045Z,1028.50
2019-01-02T11:24:23.019Z,1028.54
2019-01-02T11:25:22.990Z,1028.59
2019-01-02T11:26:22.966Z,1028.56
2019-01-02T11:27:22.961Z,1028.56
2019-01-02T11:28:22.916Z,1028.54
2019-01-02T11:29:22.892Z,1028.57
2019-01-02T11:30:22.896Z,1028.57
2019-01-02T11:31:22.843Z,1028.64
2019-01-02T11:32:22.823Z,1028.62
2019-01-02T11:33:22.798Z,1028.64
2019-01-02T11:34:22.771Z,1028.64
2019-01-02T11:35:22.746Z,1028.67
2019-01-02T11:36:22.723Z,1028.63
2019-01-02T11:37:22.713Z,1028.69
2019-01-02T11:38:22.677Z,1028.68
2019-01-02T11:39:22.646Z,1028.61
2019-01-02T11:40:22.622Z,1028.63
2019-01-02T11:41:22.596Z,1028.65
2019-01-02T11:42:22.575Z,1028.60
2019-01-02T11:43:22.550Z,1028.66
2019-01-02T11:44:22.524Z,1028.63
2019-01-02T11:45:22.503Z,1028.64
2019-01-02T11:46:22.488Z,1028.67
2019-01-02T11:47:22.451Z,1028.61
2019-01-02T11:48:22.424Z,1028.64
2019-01-02T11:49:22.400Z,1028.65
2019-01-02T11:50:22.373Z,1028.77
2019-01-02T11:51:22.349Z,1028.68
2019-01-02T11:52:22.324Z,1028.74
2019-01-02T11:53:22.302Z,1028.66
2019-01-02T11:54:22.288Z,1028.68
2019-01-02T11:55:22.255Z,1028.68
2019-01-02T11:56:22.228Z,1028.65
2019-01-02T11:57:22.200Z,1028.69
2019-01-02T11:58:22.177Z,1028.73
2019-01-02T11:59:22.150Z,1028.73
2019-01-02T12:00:22.128Z,1028.69
2019-01-02T12:01:22.103Z,1028.74
2019-01-02T12:02:22.079Z,1028.75
2019-01-02T12:03:22.054Z,1028.72
2019-01-02T12:04:22.038Z,1028.64
2019-01-02T12:05:22.003Z,1028.70